Time;durP1;ratioP1;P1;durP2;ratioP2;P2;SDS_P1;SDS_P2;PMS_P1;PMS_P2;Temp;Humidity;BMP_temperature;BMP_pressure;BME280_temperature;BME280_humidity;BME280_pressure;Samples;Min_cycle;Max_cycle;Signal;HPM_P1;HPM_P2
2020/12/08 00:02:19;;;;;;;14.38;12.80;;;;;;;4.98;72.14;98839.28;9724442;28;20064;-73
2020/12/08 00:07:20;;;;;;;13.68;12.27;;;;;;;4.95;72.25;98843.84;9757015;28;20078;-73
2020/12/08 00:12:23;;;;;;;15.27;12.40;;;;;;;4.78;72.05;98834.63;9785984;28;20544;-73
2020/12/08 00:17:25;;;;;;;14.32;12.10;;;;;;;4.73;72.20;98834.16;9730858;28;20062;-73
2020/12/08 00:22:26;;;;;;;12.38;10.57;;;;;;;4.59;71.84;98837.03;9742103;28;20055;-72
2020/12/08 00:27:27;;;;;;;11.27;10.07;;;;;;;4.52;71.31;98835.81;9750144;28;23709;-72
2020/12/08 00:32:29;;;;;;;11.57;10.38;;;;;;;4.36;71.09;98830.94;9732007;28;20051;-71
2020/12/08 00:37:30;;;;;;;11.93;9.43;;;;;;;4.27;71.69;98827.22;9728393;28;20082;-73
2020/12/08 00:42:32;;;;;;;10.88;9.40;;;;;;;4.17;71.79;98829.69;9758105;28;20076;-72
2020/12/08 00:47:34;;;;;;;10.75;9.05;;;;;;;4.20;71.85;98821.59;9749367;28;22409;-73
2020/12/08 00:52:35;;;;;;;9.95;8.95;;;;;;;4.13;71.32;98833.53;9733265;28;20061;-72
2020/12/08 00:57:40;;;;;;;10.13;9.02;;;;;;;4.10;72.06;98832.91;9734130;28;20212;-72
2020/12/08 01:02:42;;;;;;;13.32;9.65;;;;;;;3.91;72.07;98817.69;9746484;28;20062;-75
2020/12/08 01:07:43;;;;;;;10.93;9.38;;;;;;;3.90;72.21;98824.75;9742111;28;20520;-72
2020/12/08 01:12:44;;;;;;;10.77;9.32;;;;;;;4.12;72.53;98841.56;9749840;28;20055;-72
2020/12/08 01:17:45;;;;;;;11.50;10.30;;;;;;;4.18;72.14;98826.13;9730208;28;20070;-73
2020/12/08 01:22:47;;;;;;;10.07;9.02;;;;;;;4.19;71.42;98837.50;9717678;28;20120;-73
2020/12/08 01:27:48;;;;;;;12.18;9.75;;;;;;;4.29;71.59;98833.19;9715419;28;20174;-73
2020/12/08 01:32:49;;;;;;;11.88;9.88;;;;;;;4.17;70.99;98840.22;9698531;29;20060;-72
2020/12/08 01:37:53;;;;;;;11.40;10.20;;;;;;;4.05;71.82;98831.50;9684903;28;20075;-71
2020/12/08 01:42:54;;;;;;;11.68;10.25;;;;;;;4.05;71.64;98828.00;9698976;28;20580;-72
2020/12/08 01:47:57;;;;;;;10.75;9.68;;;;;;;4.07;71.72;98840.09;9717384;29;20059;-73
2020/12/08 01:52:58;;;;;;;11.32;10.13;;;;;;;4.06;71.66;98837.59;9812005;28;20055;-71
2020/12/08 01:57:59;;;;;;;10.15;9.13;;;;;;;4.09;71.68;98841.78;9756517;28;20248;-73
2020/12/08 02:03:02;;;;;;;11.27;10.07;;;;;;;3.97;72.25;98843.56;9697989;29;20528;-72
2020/12/08 02:08:03;;;;;;;13.88;11.25;;;;;;;4.04;71.75;98835.06;9700889;29;24450;-72
2020/12/08 02:13:07;;;;;;;12.57;10.07;;;;;;;4.06;72.16;98832.31;9713537;29;20066;-72
2020/12/08 02:18:09;;;;;;;11.95;10.43;;;;;;;4.13;72.16;98817.75;9734055;28;20062;-72
2020/12/08 02:23:10;;;;;;;12.23;10.77;;;;;;;4.14;71.06;98823.84;9736448;28;20296;-72
2020/12/08 02:28:11;;;;;;;12.38;11.05;;;;;;;4.18;71.44;98822.66;9717615;28;20066;-73
2020/12/08 02:33:13;;;;;;;13.35;10.93;;;;;;;4.07;71.27;98823.47;9717352;29;20120;-74
2020/12/08 02:38:14;;;;;;;14.50;11.85;;;;;;;4.15;71.32;98836.06;9721605;28;20806;-72
2020/12/08 02:43:15;;;;;;;14.13;12.23;;;;;;;4.17;71.11;98832.31;9719329;28;20082;-71
2020/12/08 02:48:17;;;;;;;13.05;11.60;;;;;;;4.31;71.32;98835.69;9689299;28;20139;-72
2020/12/08 02:53:31;;;;;;;14.37;12.03;;;;;;;4.40;70.47;98848.19;9717638;28;20076;-72
2020/12/08 02:58:32;;;;;;;15.52;12.90;;;;;;;4.37;70.46;98835.25;9714061;28;20756;-72
2020/12/08 03:03:37;;;;;;;13.95;12.00;;;;;;;4.46;70.59;98839.81;9703034;28;20205;-72
2020/12/08 03:08:39;;;;;;;14.68;11.85;;;;;;;4.40;70.28;98829.75;9708218;28;20521;-72
2020/12/08 03:13:42;;;;;;;15.75;12.80;;;;;;;4.42;70.82;98825.19;9713541;28;20055;-71
2020/12/08 03:18:44;;;;;;;15.30;12.48;;;;;;;4.50;70.49;98820.13;9743836;28;20129;-72
2020/12/08 03:23:45;;;;;;;13.10;11.43;;;;;;;4.54;69.95;98833.94;9740550;28;20059;-73
2020/12/08 03:28:47;;;;;;;13.48;11.88;;;;;;;4.46;70.11;98834.53;9751071;28;20097;-71
2020/12/08 03:33:49;;;;;;;14.90;12.88;;;;;;;4.44;70.80;98825.88;9745175;28;20051;-72
2020/12/08 03:38:51;;;;;;;15.05;12.15;;;;;;;4.51;70.70;98827.09;9758392;28;20047;-73
2020/12/08 03:43:53;;;;;;;16.58;13.45;;;;;;;4.51;71.14;98818.38;9753426;28;20058;-72
2020/12/08 03:48:55;;;;;;;14.82;12.48;;;;;;;4.53;71.17;98804.09;9754025;28;20059;-72
2020/12/08 03:53:57;;;;;;;14.43;12.60;;;;;;;4.56;70.99;98792.47;9706048;28;23487;-72
2020/12/08 03:58:58;;;;;;;15.45;13.57;;;;;;;4.60;70.61;98807.09;9751162;28;22347;-71
2020/12/08 04:03:59;;;;;;;15.10;13.50;;;;;;;4.59;70.79;98797.50;9753596;28;20057;-71
2020/12/08 04:09:00;;;;;;;15.75;13.63;;;;;;;4.63;70.68;98803.38;9742530;28;20054;-71
2020/12/08 04:14:03;;;;;;;18.58;15.10;;;;;;;4.59;70.70;98806.25;9741134;28;24176;-72
2020/12/08 04:19:05;;;;;;;16.73;14.05;;;;;;;4.64;70.97;98807.69;9746751;28;23676;-72
2020/12/08 04:24:06;;;;;;;18.50;14.98;;;;;;;4.66;70.81;98811.03;9746661;28;20062;-72
2020/12/08 04:29:07;;;;;;;17.02;13.57;;;;;;;4.69;70.64;98802.91;9743465;28;20513;-72
2020/12/08 04:34:09;;;;;;;15.15;13.20;;;;;;;4.67;70.32;98810.94;9741537;28;20142;-72
2020/12/08 04:39:10;;;;;;;16.83;14.15;;;;;;;4.67;70.72;98816.19;9735408;28;20090;-73
2020/12/08 04:44:11;;;;;;;16.65;13.65;;;;;;;4.68;70.76;98832.84;9747961;28;20283;-73
2020/12/08 04:49:13;;;;;;;15.60;13.60;;;;;;;4.68;71.11;98822.28;9715059;28;20055;-73
2020/12/08 04:54:14;;;;;;;15.52;13.43;;;;;;;4.73;70.74;98833.34;9741628;28;20062;-72
2020/12/08 04:59:23;;;;;;;15.10;13.45;;;;;;;4.69;71.02;98831.88;9739036;28;20267;-71
2020/12/08 05:04:25;;;;;;;17.92;14.60;;;;;;;4.70;70.82;98828.28;9722670;28;20429;-71
2020/12/08 05:09:26;;;;;;;15.50;13.30;;;;;;;4.73;70.73;98822.78;9726066;28;20116;-72
2020/12/08 05:14:27;;;;;;;17.20;14.52;;;;;;;4.76;69.97;98825.19;9742296;28;20051;-72
2020/12/08 05:19:29;;;;;;;16.80;13.63;;;;;;;4.82;70.09;98821.19;9745389;28;21500;-72
2020/12/08 05:24:32;;;;;;;16.13;14.10;;;;;;;4.74;70.32;98806.00;9741992;28;20529;-74
2020/12/08 05:29:36;;;;;;;16.38;14.57;;;;;;;4.75;70.25;98813.78;9729454;28;20055;-72
2020/12/08 05:34:41;;;;;;;15.50;13.43;;;;;;;4.75;70.34;98818.22;9750415;28;20054;-71
2020/12/08 05:39:44;;;;;;;15.48;12.85;;;;;;;4.82;70.76;98819.41;9752078;28;20059;-73
2020/12/08 05:44:50;;;;;;;16.17;13.35;;;;;;;4.80;70.62;98805.50;9757084;28;20055;-73
2020/12/08 05:50:00;;;;;;;14.20;12.63;;;;;;;4.86;70.36;98807.63;9745204;28;20055;-72
2020/12/08 05:55:08;;;;;;;14.77;12.50;;;;;;;4.89;70.36;98810.03;9740506;28;20055;-71
2020/12/08 06:00:39;;;;;;;17.13;11.93;;;;;;;4.89;70.53;98802.13;9764389;28;23150;-73
2020/12/08 06:05:45;;;;;;;14.55;12.32;;;;;;;4.90;70.13;98805.63;9724561;28;22284;-72
2020/12/08 06:10:52;;;;;;;14.38;12.10;;;;;;;4.85;70.34;98803.34;9701583;28;23863;-72
2020/12/08 06:15:55;;;;;;;12.65;11.32;;;;;;;4.83;69.67;98797.34;9731442;28;20082;-73
2020/12/08 06:20:58;;;;;;;14.32;11.63;;;;;;;4.84;69.38;98803.47;9734123;28;20051;-71
2020/12/08 06:26:01;;;;;;;12.98;11.50;;;;;;;4.86;69.65;98799.72;9735738;28;22753;-72
2020/12/08 06:31:08;;;;;;;13.68;11.05;;;;;;;4.85;69.58;98802.50;9763375;28;20062;-72
2020/12/08 06:36:09;;;;;;;12.82;10.75;;;;;;;4.80;69.83;98817.84;9744542;28;20201;-73
2020/12/08 06:41:10;;;;;;;12.95;11.43;;;;;;;4.77;70.13;98821.56;9739121;28;20051;-71
2020/12/08 06:46:12;;;;;;;13.43;12.00;;;;;;;4.84;69.57;98817.50;9944973;28;20121;-72
2020/12/08 06:51:17;;;;;;;13.52;12.13;;;;;;;4.88;69.52;98795.19;9739281;28;20059;-71
2020/12/08 06:56:31;;;;;;;;;;;;;;;4.86;69.40;98801.53;9742058;28;20051;-71
2020/12/08 07:01:33;;;;;;;13.32;11.15;;;;;;;4.80;69.50;98805.50;9742151;28;19931;-71
2020/12/08 07:06:35;;;;;;;14.75;12.07;;;;;;;4.85;69.62;98823.59;9745460;28;20106;-72
2020/12/08 07:11:37;;;;;;;12.32;10.65;;;;;;;4.89;68.89;98831.13;9713294;28;20051;-72
2020/12/08 07:16:47;;;;;;;13.25;11.77;;;;;;;4.92;69.42;98841.47;9707008;28;22539;-74
2020/12/08 07:22:00;;;;;;;12.02;10.82;;;;;;;4.91;69.44;98839.78;9744093;28;20058;-73
2020/12/08 07:27:04;;;;;;;13.90;11.35;;;;;;;4.94;69.11;98836.88;9739085;28;20206;-72
2020/12/08 07:32:06;;;;;;;16.02;12.50;;;;;;;4.95;69.13;98830.66;9745964;28;20051;-73
2020/12/08 07:37:15;;;;;;;12.18;9.98;;;;;;;4.99;68.58;98840.97;9730880;28;20596;-73
2020/12/08 07:42:17;;;;;;;14.13;11.32;;;;;;;4.92;68.66;98825.63;9720089;28;20463;-72
2020/12/08 07:47:18;;;;;;;12.15;10.80;;;;;;;4.98;68.97;98828.72;9737310;28;21823;-72
2020/12/08 07:52:20;;;;;;;12.73;10.85;;;;;;;5.03;68.70;98837.09;9737609;28;20047;-70
2020/12/08 07:57:22;;;;;;;41.38;16.55;;;;;;;5.16;68.57;98848.34;9732284;28;20065;-72
2020/12/08 08:02:23;;;;;;;18.40;13.00;;;;;;;5.20;68.43;98839.22;9703592;28;20051;-72
2020/12/08 08:07:25;;;;;;;12.52;11.15;;;;;;;5.19;68.36;98842.81;9722939;28;20429;-71
2020/12/08 08:12:27;;;;;;;12.80;10.90;;;;;;;5.21;67.94;98833.00;9736592;28;20059;-73
2020/12/08 08:17:28;;;;;;;11.65;10.45;;;;;;;5.25;67.83;98842.31;9729285;28;20069;-72
2020/12/08 08:22:30;;;;;;;11.48;10.38;;;;;;;5.41;67.34;98846.38;9866068;28;20544;-72
2020/12/08 08:27:31;;;;;;;11.65;10.45;;;;;;;5.52;66.71;98845.50;9823733;28;22863;-73
2020/12/08 08:32:34;;;;;;;13.82;10.55;;;;;;;5.63;67.26;98867.41;9745858;28;20058;-72
2020/12/08 08:37:36;;;;;;;12.75;10.95;;;;;;;5.47;67.75;98877.53;9739806;28;20050;-72
2020/12/08 08:42:37;;;;;;;12.20;10.85;;;;;;;5.75;67.08;98886.69;9736106;28;20528;-73
2020/12/08 08:47:39;;;;;;;11.38;10.27;;;;;;;5.81;65.98;98888.81;9735481;28;20078;-73
2020/12/08 08:52:40;;;;;;;12.63;11.40;;;;;;;5.88;66.07;98881.22;9736654;28;20071;-73
2020/12/08 08:57:42;;;;;;;11.65;10.45;;;;;;;5.98;65.48;98882.16;9733372;28;20055;-72
2020/12/08 09:02:43;;;;;;;11.07;9.98;;;;;;;6.15;65.42;98877.28;9755355;28;20059;-72
2020/12/08 09:07:45;;;;;;;11.40;10.02;;;;;;;6.24;64.89;98876.50;9759400;28;20059;-72
2020/12/08 09:12:48;;;;;;;10.98;9.88;;;;;;;6.26;64.92;98881.66;9740680;28;20059;-72
2020/12/08 09:17:50;;;;;;;28.70;20.13;;;;;;;6.33;64.59;98877.53;9758554;28;20066;-70
2020/12/08 09:22:51;;;;;;;26.27;20.23;;;;;;;6.48;64.11;98872.75;9746597;28;20053;-71
2020/12/08 09:27:54;;;;;;;11.88;10.60;;;;;;;6.81;63.32;98876.09;9748228;28;20051;-72
2020/12/08 09:32:56;;;;;;;10.35;9.32;;;;;;;7.21;61.41;98864.66;9738805;28;20067;-72
2020/12/08 09:37:57;;;;;;;10.60;9.50;;;;;;;7.07;62.18;98881.75;9739587;28;20089;-72
2020/12/08 09:42:59;;;;;;;9.82;8.93;;;;;;;6.97;62.30;98879.06;9771720;28;20056;-72
2020/12/08 09:48:00;;;;;;;11.25;9.57;;;;;;;6.85;62.05;98886.28;9792530;28;20050;-71
2020/12/08 09:53:02;;;;;;;10.52;9.20;;;;;;;6.90;62.28;98877.94;9986145;23;20090;-67
2020/12/08 09:58:03;;;;;;;9.93;8.93;;;;;;;6.70;61.61;98871.75;9763096;28;20054;-66
2020/12/08 10:03:05;;;;;;;8.77;7.97;;;;;;;6.46;61.47;98883.44;9742184;28;20056;-67
2020/12/08 10:08:06;;;;;;;9.13;8.23;;;;;;;6.78;60.78;98885.13;9713657;28;20189;-67
2020/12/08 10:13:08;;;;;;;9.75;8.55;;;;;;;6.82;60.52;98859.25;9716821;28;20075;-68
2020/12/08 10:18:09;;;;;;;19.13;15.77;;;;;;;7.12;60.50;98878.72;9758817;28;20453;-67
2020/12/08 10:23:11;;;;;;;9.48;8.55;;;;;;;7.28;58.81;98881.69;9713966;28;20458;-67
2020/12/08 10:28:13;;;;;;;10.25;9.10;;;;;;;7.15;59.03;98854.63;9716068;28;20047;-67
2020/12/08 10:33:15;;;;;;;9.65;8.68;;;;;;;7.68;57.71;98875.44;9717809;28;20066;-67
2020/12/08 10:38:18;;;;;;;8.77;7.88;;;;;;;8.24;55.45;98863.28;9726200;28;20075;-69
2020/12/08 10:43:19;;;;;;;10.57;9.48;;;;;;;8.41;55.16;98874.97;9732925;28;20055;-68
2020/12/08 10:48:36;;;;;;;9.55;8.65;;;;;;;8.41;54.07;98853.75;9683296;28;20492;-69
2020/12/08 10:53:44;;;;;;;9.73;8.82;;;;;;;10.30;50.98;98870.03;9697723;28;20095;-67
2020/12/08 10:58:46;;;;;;;12.13;10.82;;;;;;;10.64;47.76;98819.56;9705822;28;20501;-68
2020/12/08 11:03:49;;;;;;;10.18;9.23;;;;;;;10.78;49.01;98855.41;9691926;28;21135;-67
2020/12/08 11:08:55;;;;;;;10.13;9.23;;;;;;;10.37;48.57;98856.00;9623557;28;22296;-67
2020/12/08 11:13:57;;;;;;;10.55;9.52;;;;;;;9.33;51.58;98849.44;9703413;28;20139;-67
2020/12/08 11:18:59;;;;;;;11.80;10.65;;;;;;;8.71;53.39;98857.19;9715667;28;20062;-67
2020/12/08 11:24:00;;;;;;;11.57;10.38;;;;;;;9.16;52.79;98848.44;9704784;28;20166;-67
2020/12/08 11:29:05;;;;;;;10.77;9.68;;;;;;;11.04;47.76;98811.91;9726622;28;20061;-68
2020/12/08 11:34:16;;;;;;;10.25;9.25;;;;;;;12.37;44.30;98847.34;9639519;28;20138;-69
2020/12/08 11:39:18;;;;;;;10.77;9.77;;;;;;;14.04;41.49;98823.13;9806849;28;21421;-68
2020/12/08 11:44:20;;;;;;;9.98;8.98;;;;;;;12.58;42.77;98832.63;9790851;28;20059;-67
2020/12/08 11:49:21;;;;;;;10.23;9.32;;;;;;;12.48;43.82;98827.47;9664259;28;20044;-68
2020/12/08 11:54:23;;;;;;;11.18;10.07;;;;;;;15.34;38.29;98815.63;9731175;28;24574;-67
2020/12/08 11:59:28;;;;;;;9.25;8.38;;;;;;;18.66;31.52;98818.38;9718824;28;20061;-69
2020/12/08 12:04:29;;;;;;;9.73;8.88;;;;;;;21.36;29.08;98823.22;9725876;28;20059;-67
2020/12/08 12:09:31;;;;;;;9.70;8.80;;;;;;;19.83;28.82;98803.97;9739944;28;20073;-67
2020/12/08 12:14:33;;;;;;;9.93;9.13;;;;;;;14.63;37.21;98819.72;9710676;28;20142;-67
2020/12/08 12:19:35;;;;;;;10.32;9.43;;;;;;;12.24;43.09;98833.69;9710229;28;24623;-68
2020/12/08 12:24:36;;;;;;;11.57;10.48;;;;;;;10.98;46.51;98797.41;9715528;28;21969;-67
2020/12/08 12:29:38;;;;;;;11.55;10.45;;;;;;;13.75;41.38;98814.00;9712477;28;20051;-68
2020/12/08 12:34:39;;;;;;;11.45;10.35;;;;;;;15.37;36.94;98829.50;9840898;28;20061;-68
2020/12/08 12:39:44;;;;;;;11.77;10.68;;;;;;;12.30;43.05;98841.00;9713163;28;20059;-67
2020/12/08 12:44:46;;;;;;;12.77;11.48;;;;;;;11.07;46.29;98849.69;9699412;28;20524;-68
2020/12/08 12:49:48;;;;;;;12.48;11.27;;;;;;;10.23;48.77;98851.22;9724428;28;20055;-67
2020/12/08 12:54:52;;;;;;;11.52;10.43;;;;;;;9.73;50.52;98856.13;9699444;28;20979;-70
2020/12/08 12:59:54;;;;;;;;;;;;;;;9.14;51.95;98844.25;9640512;28;20065;-66
2020/12/08 13:04:56;;;;;;;12.27;11.00;;;;;;;8.95;52.25;98830.09;9730633;28;19937;-67
2020/12/08 13:09:58;;;;;;;12.70;11.50;;;;;;;9.14;52.47;98815.91;9722054;28;20617;-67
2020/12/08 13:14:59;;;;;;;13.05;11.55;;;;;;;11.82;45.90;98824.03;9708553;28;20059;-67
2020/12/08 13:20:01;;;;;;;11.43;10.40;;;;;;;11.04;47.43;98827.88;9698073;28;20142;-66
2020/12/08 13:25:03;;;;;;;13.35;11.73;;;;;;;14.27;40.46;98819.56;9702234;28;20075;-67
2020/12/08 13:30:05;;;;;;;11.20;10.10;;;;;;;16.20;35.83;98815.66;9725309;28;23812;-66
2020/12/08 13:35:06;;;;;;;12.00;10.77;;;;;;;12.69;41.78;98818.91;9727253;28;20051;-67
2020/12/08 13:40:11;;;;;;;11.90;10.68;;;;;;;11.66;45.17;98804.38;9668446;28;20061;-67
2020/12/08 13:45:14;;;;;;;12.63;11.23;;;;;;;10.35;48.44;98854.50;9683530;28;20059;-68
2020/12/08 13:50:16;;;;;;;12.55;11.25;;;;;;;10.04;49.86;98836.28;9704653;28;20062;-68
2020/12/08 13:55:17;;;;;;;12.07;10.98;;;;;;;9.47;51.25;98845.44;9677525;28;23273;-66
2020/12/08 14:00:19;;;;;;;12.45;11.27;;;;;;;9.26;52.78;98843.03;9731817;28;20572;-66
2020/12/08 14:05:21;;;;;;;12.43;11.32;;;;;;;8.99;53.66;98851.88;9663655;28;20552;-66
2020/12/08 14:10:23;;;;;;;12.60;11.27;;;;;;;8.62;54.69;98840.31;9701905;28;21552;-67
2020/12/08 14:15:25;;;;;;;13.02;11.27;;;;;;;8.32;56.07;98849.31;9653293;28;20055;-67
2020/12/08 14:20:28;;;;;;;14.05;11.85;;;;;;;8.00;56.66;98833.75;9607760;28;20160;-66
2020/12/08 14:25:32;;;;;;;12.85;11.50;;;;;;;7.86;57.67;98853.56;9764115;28;24049;-66
2020/12/08 14:30:34;;;;;;;12.63;11.33;;;;;;;7.93;57.10;98859.97;9792024;28;20445;-67
2020/12/08 14:35:36;;;;;;;13.38;11.20;;;;;;;7.78;57.87;98863.03;9847923;28;20194;-67
2020/12/08 14:40:40;;;;;;;17.08;12.50;;;;;;;7.70;58.10;98856.75;9752178;28;20047;-66
2020/12/08 14:45:42;;;;;;;14.15;12.75;;;;;;;7.65;58.67;98873.06;9969545;28;20859;-65
2020/12/08 14:50:47;;;;;;;12.75;11.45;;;;;;;7.57;59.48;98871.13;9733947;28;20066;-68
2020/12/08 14:55:49;;;;;;;14.65;13.13;;;;;;;7.31;59.58;98849.66;9722254;28;20058;-67
2020/12/08 15:00:51;;;;;;;14.20;12.77;;;;;;;7.30;60.81;98876.25;9719788;28;23516;-66
2020/12/08 15:05:52;;;;;;;13.82;12.35;;;;;;;7.17;61.07;98887.91;9722443;28;21878;-67
2020/12/08 15:10:54;;;;;;;16.45;14.70;;;;;;;7.03;61.79;98890.94;9718645;28;20713;-66
2020/12/08 15:15:57;;;;;;;14.65;13.13;;;;;;;6.87;62.07;98886.97;9723606;28;20089;-66
2020/12/08 15:20:58;;;;;;;14.95;13.20;;;;;;;6.67;62.81;98878.13;9708869;28;20757;-66
2020/12/08 15:26:00;;;;;;;14.35;12.93;;;;;;;6.64;63.10;98881.03;9722750;28;20077;-66
2020/12/08 15:31:04;;;;;;;15.25;12.75;;;;;;;6.59;63.28;98880.59;9678451;28;20173;-67
2020/12/08 15:36:06;;;;;;;14.95;13.45;;;;;;;6.36;63.29;98856.97;9605618;28;20600;-64
2020/12/08 15:41:16;;;;;;;13.45;12.10;;;;;;;6.58;63.24;98910.66;9656953;28;22985;-67
2020/12/08 15:46:21;;;;;;;;;;;;;;;6.59;63.64;98914.97;9674215;28;20668;-66
2020/12/08 15:51:25;;;;;;;15.00;12.15;;;;;;;6.46;63.78;98914.34;9631897;28;19957;-67
2020/12/08 15:56:27;;;;;;;13.13;10.83;;;;;;;6.37;63.99;98908.84;9619123;28;20048;-67
2020/12/08 16:01:31;;;;;;;13.02;11.63;;;;;;;6.29;64.27;98932.47;9644368;28;20124;-65
2020/12/08 16:06:34;;;;;;;14.95;13.00;;;;;;;6.15;64.75;98916.91;9634020;28;20054;-67
2020/12/08 16:11:35;;;;;;;12.63;11.32;;;;;;;6.04;65.15;98917.81;9744120;28;20509;-66
2020/12/08 16:16:37;;;;;;;13.65;11.90;;;;;;;6.12;65.50;98920.63;9625446;28;20712;-69
2020/12/08 16:21:40;;;;;;;13.82;11.88;;;;;;;6.12;65.76;98933.84;9839027;23;22237;-67
2020/12/08 16:26:41;;;;;;;16.00;13.23;;;;;;;6.04;65.62;98922.25;9735252;28;20082;-68
2020/12/08 16:31:43;;;;;;;14.82;12.68;;;;;;;5.97;65.89;98937.75;9742321;28;24386;-69
2020/12/08 16:36:44;;;;;;;13.70;12.27;;;;;;;5.84;66.33;98940.56;9730122;28;20134;-71
2020/12/08 16:41:46;;;;;;;16.48;13.98;;;;;;;5.81;66.30;98951.34;9742849;28;20607;-69
2020/12/08 16:46:49;;;;;;;14.98;13.43;;;;;;;5.79;66.36;98955.91;9733617;28;20093;-69
2020/12/08 16:51:51;;;;;;;12.70;11.40;;;;;;;5.79;66.04;98979.69;9733297;28;20110;-69
2020/12/08 16:56:53;;;;;;;17.00;13.30;;;;;;;5.79;66.59;98971.75;9724249;28;20059;-69
2020/12/08 17:01:55;;;;;;;15.20;13.48;;;;;;;5.81;66.21;98980.38;9737404;28;20133;-67
2020/12/08 17:06:56;;;;;;;16.77;14.73;;;;;;;5.83;66.84;98965.28;9736354;28;20055;-67
2020/12/08 17:11:59;;;;;;;15.93;14.07;;;;;;;5.84;67.12;98964.31;9741399;28;20109;-67
2020/12/08 17:17:00;;;;;;;16.67;14.10;;;;;;;5.73;66.45;98967.81;9732315;28;20051;-68
2020/12/08 17:22:06;;;;;;;19.58;15.23;;;;;;;5.66;67.06;98966.66;9703703;28;20058;-67
2020/12/08 17:27:08;;;;;;;;;;;;;;;5.57;67.20;98970.00;9675117;28;21387;-68
2020/12/08 17:32:11;;;;;;;19.63;13.23;;;;;;;5.56;67.43;98973.63;9685323;28;20149;-67
2020/12/08 17:37:15;;;;;;;16.85;12.65;;;;;;;5.52;67.17;98975.66;9685016;28;20060;-66
2020/12/08 17:42:19;;;;;;;15.20;12.63;;;;;;;5.55;66.44;98972.78;9695267;28;20380;-67
2020/12/08 17:47:20;;;;;;;12.52;11.00;;;;;;;5.53;65.93;98981.78;9674293;28;20978;-67
2020/12/08 17:52:22;;;;;;;14.30;12.00;;;;;;;5.55;65.89;98991.25;9679000;28;20562;-65
2020/12/08 17:57:23;;;;;;;13.00;10.32;;;;;;;5.52;65.89;98995.94;9666389;28;20459;-68
2020/12/08 18:02:25;;;;;;;13.02;11.63;;;;;;;5.39;66.52;98991.66;9687816;28;20155;-68
2020/12/08 18:07:27;;;;;;;11.85;10.68;;;;;;;5.40;66.12;98995.13;9670383;28;20070;-68
2020/12/08 18:12:32;;;;;;;13.25;10.35;;;;;;;5.25;67.03;99019.09;9674689;28;22449;-68
2020/12/08 18:17:35;;;;;;;12.93;10.45;;;;;;;5.37;66.79;99019.09;9686385;28;20124;-68
2020/12/08 18:22:39;;;;;;;13.25;11.75;;;;;;;5.29;66.92;99022.34;9728701;28;20066;-69
2020/12/08 18:27:41;;;;;;;11.15;10.02;;;;;;;5.34;66.69;99025.47;9765359;28;20055;-70
2020/12/08 18:32:44;;;;;;;16.88;12.82;;;;;;;5.02;68.06;99030.63;9767797;28;23612;-68
2020/12/08 18:37:47;;;;;;;14.52;11.90;;;;;;;5.20;67.70;99029.19;9728875;28;20055;-68
2020/12/08 18:42:57;;;;;;;12.32;10.90;;;;;;;5.26;66.86;99030.50;9765854;28;20162;-68
2020/12/08 18:47:59;;;;;;;12.88;11.40;;;;;;;5.31;66.92;99034.47;9749668;28;20059;-69
2020/12/08 18:53:02;;;;;;;13.73;11.77;;;;;;;5.34;67.23;99046.56;9947371;28;20067;-69
2020/12/08 18:58:03;;;;;;;12.95;10.93;;;;;;;5.26;66.79;99038.44;9716305;28;20091;-68
2020/12/08 19:03:05;;;;;;;13.48;12.07;;;;;;;5.16;67.76;99054.13;9728580;28;21845;-68
2020/12/08 19:08:07;;;;;;;14.15;12.38;;;;;;;5.24;67.72;99059.66;9697593;28;22643;-70
2020/12/08 19:13:08;;;;;;;13.15;11.68;;;;;;;5.18;67.29;99046.94;9703630;28;20052;-70
2020/12/08 19:18:10;;;;;;;19.63;12.45;;;;;;;5.24;67.61;99059.66;9709944;28;20498;-69
2020/12/08 19:23:11;;;;;;;15.65;13.45;;;;;;;5.27;67.29;99072.59;9716759;28;20508;-69
2020/12/08 19:28:13;;;;;;;17.52;13.15;;;;;;;5.20;67.69;99068.75;9702224;28;20781;-70
2020/12/08 19:33:14;;;;;;;15.02;12.90;;;;;;;5.18;67.61;99065.41;9730955;28;20134;-70
2020/12/08 19:38:16;;;;;;;15.48;13.75;;;;;;;5.16;67.77;99064.66;9706550;28;20055;-70
2020/12/08 19:43:17;;;;;;;17.30;14.75;;;;;;;5.00;68.20;99059.75;9713663;28;20047;-69
2020/12/08 19:48:18;;;;;;;14.45;12.75;;;;;;;5.02;68.38;99055.19;9709868;28;20153;-69
2020/12/08 19:53:20;;;;;;;15.45;13.57;;;;;;;4.95;68.55;99062.75;9715214;28;20058;-71
2020/12/08 19:58:21;;;;;;;15.50;13.27;;;;;;;4.96;68.54;99064.41;9683564;28;20052;-69
2020/12/08 20:03:22;;;;;;;18.65;15.27;;;;;;;4.98;68.54;99060.81;9705380;28;20059;-70
2020/12/08 20:08:24;;;;;;;17.25;15.20;;;;;;;4.98;68.69;99072.19;9673089;28;20063;-69
2020/12/08 20:13:25;;;;;;;17.00;14.45;;;;;;;5.01;68.69;99068.50;9691842;28;20068;-68
2020/12/08 20:18:26;;;;;;;16.77;14.98;;;;;;;4.98;68.69;99071.38;9704497;28;20548;-69
2020/12/08 20:23:28;;;;;;;15.65;13.50;;;;;;;4.95;68.76;99078.56;9719292;28;20048;-69
2020/12/08 20:28:31;;;;;;;16.15;13.30;;;;;;;4.94;68.99;99081.31;9684610;28;20063;-68
2020/12/08 20:33:36;;;;;;;16.30;14.48;;;;;;;4.81;69.31;99070.00;9705910;28;20702;-70
2020/12/08 20:38:37;;;;;;;18.17;16.17;;;;;;;4.78;69.26;99086.91;9706276;28;20051;-69
2020/12/08 20:43:38;;;;;;;17.83;15.63;;;;;;;4.74;69.81;99090.72;9715678;28;20066;-69
2020/12/08 20:48:41;;;;;;;20.23;16.83;;;;;;;4.62;70.26;99078.44;9716711;28;20380;-69
2020/12/08 20:53:43;;;;;;;19.77;16.77;;;;;;;4.70;70.02;99083.97;9700241;28;20059;-68
2020/12/08 20:58:45;;;;;;;20.63;16.67;;;;;;;4.69;69.68;99071.78;9705632;28;20056;-70
2020/12/08 21:03:46;;;;;;;18.17;15.80;;;;;;;4.70;69.93;99078.72;9708224;28;20217;-69
2020/12/08 21:08:47;;;;;;;21.05;16.85;;;;;;;4.65;69.91;99080.84;9707038;28;20058;-70
2020/12/08 21:13:49;;;;;;;16.98;15.07;;;;;;;4.64;69.98;99071.25;9716656;28;20059;-69
2020/12/08 21:18:52;;;;;;;23.42;18.88;;;;;;;4.63;70.05;99072.22;9708603;28;20055;-70
2020/12/08 21:23:54;;;;;;;20.52;18.33;;;;;;;4.62;70.33;99071.38;9705060;28;20043;-70
2020/12/08 21:28:56;;;;;;;20.35;16.02;;;;;;;4.62;70.26;99087.19;9747811;28;20114;-69
2020/12/08 21:33:57;;;;;;;19.55;17.02;;;;;;;4.53;70.20;99078.16;9725435;28;20055;-71
2020/12/08 21:38:59;;;;;;;18.88;16.88;;;;;;;4.44;70.58;99084.13;9741293;28;20403;-72
2020/12/08 21:44:00;;;;;;;20.55;18.27;;;;;;;4.47;70.68;99083.91;9735275;28;20713;-71
2020/12/08 21:49:01;;;;;;;22.08;17.85;;;;;;;4.41;70.65;99084.34;9709542;28;23749;-71
2020/12/08 21:54:03;;;;;;;25.30;19.88;;;;;;;4.41;70.86;99097.53;9712665;28;22951;-69
2020/12/08 21:59:04;;;;;;;22.75;18.35;;;;;;;4.38;70.72;99090.72;9719899;28;20500;-73
2020/12/08 22:04:06;;;;;;;21.58;18.90;;;;;;;4.34;71.26;99104.19;9705431;28;22476;-71
2020/12/08 22:09:07;;;;;;;19.10;17.08;;;;;;;4.36;71.29;99107.56;9725146;28;22746;-72
2020/12/08 22:14:08;;;;;;;22.77;18.27;;;;;;;4.28;70.99;99102.88;9704143;28;20055;-71
2020/12/08 22:19:10;;;;;;;22.05;18.50;;;;;;;4.32;71.34;99108.75;9701664;28;20094;-70
2020/12/08 22:24:12;;;;;;;20.55;17.75;;;;;;;4.33;70.89;99107.78;9716150;28;20059;-69
2020/12/08 22:29:13;;;;;;;22.13;18.98;;;;;;;4.25;71.49;99106.56;9706814;28;20568;-70
2020/12/08 22:34:15;;;;;;;21.23;16.73;;;;;;;4.26;71.63;99112.66;9706988;28;20051;-70
2020/12/08 22:39:16;;;;;;;21.75;17.58;;;;;;;4.23;70.91;99105.84;9710682;28;20060;-70
2020/12/08 22:44:17;;;;;;;22.20;18.25;;;;;;;4.21;71.37;99128.78;9704214;28;20476;-71
2020/12/08 22:49:19;;;;;;;20.98;17.77;;;;;;;4.21;71.61;99149.03;9703807;28;20059;-70
2020/12/08 22:54:21;;;;;;;24.23;18.77;;;;;;;4.10;71.69;99148.94;9695077;28;20461;-71
2020/12/08 22:59:22;;;;;;;21.58;18.50;;;;;;;4.01;71.92;99161.84;9722267;28;20062;-70
2020/12/08 23:04:23;;;;;;;20.33;17.95;;;;;;;3.98;72.00;99162.06;9710073;28;20059;-71
2020/12/08 23:09:25;;;;;;;21.05;17.67;;;;;;;4.02;71.68;99173.19;9708339;28;20055;-70
2020/12/08 23:14:26;;;;;;;21.42;18.92;;;;;;;3.87;72.10;99181.25;9702597;28;20062;-68
2020/12/08 23:19:28;;;;;;;22.13;18.63;;;;;;;3.80;72.69;99169.44;9724450;28;20055;-68
2020/12/08 23:24:29;;;;;;;20.95;17.35;;;;;;;3.76;73.01;99159.25;9736173;28;20050;-68
2020/12/08 23:29:30;;;;;;;20.02;17.15;;;;;;;3.75;72.88;99155.75;9742338;28;20059;-69